createdAt,value
2022-12-08T00:01:56.975Z,4.25
2022-12-08T00:04:26.737Z,3.10
2022-12-08T00:07:12.713Z,3.13
2022-12-08T00:09:42.088Z,3.05
2022-12-08T00:12:19.853Z,4.40
2022-12-08T00:14:55.955Z,3.50
2022-12-08T00:17:28.678Z,3.97
2022-12-08T00:19:56.952Z,3.47
2022-12-08T00:22:31.530Z,4.32
2022-12-08T00:24:58.540Z,3.42
2022-12-08T00:27:30.133Z,4.75
2022-12-08T00:29:57.294Z,5.65
2022-12-08T00:32:29.702Z,5.05
2022-12-08T00:34:59.910Z,4.38
2022-12-08T00:37:36.393Z,5.40
2022-12-08T00:40:07.640Z,5.45
2022-12-08T00:42:41.982Z,4.93
2022-12-08T00:45:09.653Z,4.68
2022-12-08T00:47:39.815Z,4.72
2022-12-08T00:50:33.776Z,4.75
2022-12-08T00:53:05.856Z,4.38
2022-12-08T00:55:40.654Z,5.03
2022-12-08T00:58:13.009Z,3.45
2022-12-08T01:00:56.384Z,3.25
2022-12-08T01:03:28.521Z,3.25
2022-12-08T01:06:01.142Z,3.92
2022-12-08T01:08:34.140Z,4.80
2022-12-08T01:11:15.674Z,3.60
2022-12-08T01:13:43.460Z,3.10
2022-12-08T01:16:54.705Z,3.88
2022-12-08T01:19:32.606Z,4.80
2022-12-08T01:22:05.509Z,5.40
2022-12-08T01:24:35.798Z,4.20
2022-12-08T01:27:18.576Z,4.65
2022-12-08T01:29:54.493Z,4.38
2022-12-08T01:32:31.165Z,5.20
2022-12-08T01:35:24.773Z,6.30
2022-12-08T01:40:50.579Z,7.25
2022-12-08T01:43:21.305Z,5.53
2022-12-08T01:45:51.469Z,5.10
2022-12-08T01:48:33.403Z,3.97
2022-12-08T01:51:09.712Z,5.93
2022-12-08T01:53:45.498Z,4.88
2022-12-08T01:56:35.881Z,4.53
2022-12-08T01:59:06.797Z,4.10
2022-12-08T02:01:42.684Z,3.97
2022-12-08T02:04:12.432Z,4.90
2022-12-08T02:09:20.235Z,4.68
2022-12-08T02:11:57.289Z,5.28
2022-12-08T02:17:19.391Z,5.68
2022-12-08T02:20:26.779Z,5.60
2022-12-08T02:23:19.707Z,6.00
2022-12-08T02:26:20.650Z,6.32
2022-12-08T02:29:07.846Z,5.38
2022-12-08T02:32:29.646Z,5.05
2022-12-08T02:35:17.541Z,4.60
2022-12-08T02:37:55.873Z,4.93
2022-12-08T02:40:32.207Z,4.25
2022-12-08T02:43:14.458Z,4.32
2022-12-08T02:45:55.891Z,4.38
2022-12-08T02:48:29.952Z,3.63
2022-12-08T02:50:59.626Z,5.13
2022-12-08T02:53:32.471Z,4.82
2022-12-08T02:56:39.550Z,4.22
2022-12-08T02:59:26.259Z,4.07
2022-12-08T03:02:46.050Z,3.95
2022-12-08T03:05:50.522Z,3.17
2022-12-08T03:08:46.371Z,4.05
2022-12-08T03:11:37.346Z,3.17
2022-12-08T03:16:49.446Z,4.68
2022-12-08T03:19:24.504Z,4.38
2022-12-08T03:22:00.466Z,3.88
2022-12-08T03:24:31.186Z,5.18
2022-12-08T03:27:23.852Z,4.38
2022-12-08T03:29:55.478Z,5.10
2022-12-08T03:32:37.764Z,5.20
2022-12-08T03:35:14.022Z,3.67
2022-12-08T03:37:41.868Z,3.50
2022-12-08T03:40:18.439Z,3.95
2022-12-08T03:42:48.121Z,4.03
2022-12-08T03:45:23.046Z,4.57
2022-12-08T03:47:55.890Z,3.05
2022-12-08T03:50:41.529Z,1.02
2022-12-08T03:53:17.863Z,3.55
2022-12-08T03:55:50.464Z,5.13
2022-12-08T03:58:20.123Z,4.63
2022-12-08T04:00:59.815Z,5.28
2022-12-08T04:03:34.690Z,4.72
2022-12-08T04:06:04.573Z,4.85
2022-12-08T04:08:34.084Z,4.82
2022-12-08T04:11:11.312Z,4.80
2022-12-08T04:13:40.313Z,4.45
2022-12-08T04:16:16.759Z,4.32
2022-12-08T04:18:54.889Z,5.40
2022-12-08T04:21:30.601Z,4.35
2022-12-08T04:24:01.238Z,4.65
2022-12-08T04:26:42.100Z,5.15
2022-12-08T04:29:09.309Z,4.70
2022-12-08T04:31:42.258Z,4.40
2022-12-08T04:34:11.908Z,4.65
2022-12-08T04:36:43.635Z,4.93
2022-12-08T04:39:13.244Z,3.97
2022-12-08T04:41:40.249Z,4.25
2022-12-08T04:44:09.845Z,4.55
2022-12-08T04:46:43.727Z,5.95
2022-12-08T04:49:12.063Z,4.60
2022-12-08T04:51:39.072Z,6.47
2022-12-08T04:54:06.078Z,5.50
2022-12-08T04:56:35.538Z,4.80
2022-12-08T04:59:04.779Z,5.25
2022-12-08T05:01:37.581Z,6.85
2022-12-08T05:06:45.301Z,5.80
2022-12-08T05:09:12.703Z,6.00
2022-12-08T05:11:48.632Z,4.45
2022-12-08T05:14:21.676Z,5.15
2022-12-08T05:16:51.397Z,4.75
2022-12-08T05:19:24.054Z,6.13
2022-12-08T05:21:53.598Z,5.20
2022-12-08T05:24:26.187Z,4.70
2022-12-08T05:26:55.523Z,4.10
2022-12-08T05:29:26.275Z,5.65
2022-12-08T05:31:58.545Z,4.97
2022-12-08T05:34:26.055Z,5.15
2022-12-08T05:36:55.633Z,4.38
2022-12-08T05:39:23.843Z,4.82
2022-12-08T05:42:12.000Z,4.72
2022-12-08T05:44:41.531Z,5.38
2022-12-08T05:47:08.849Z,4.97
2022-12-08T05:49:38.886Z,4.68
2022-12-08T05:52:06.603Z,5.75
2022-12-08T05:54:44.460Z,5.50
2022-12-08T05:57:11.808Z,6.28
2022-12-08T05:59:41.831Z,5.82
2022-12-08T06:02:22.907Z,3.47
2022-12-08T06:04:57.339Z,1.98
2022-12-08T06:07:32.284Z,2.78
2022-12-08T06:12:31.078Z,1.70
2022-12-08T06:14:58.258Z,3.20
2022-12-08T06:17:30.089Z,2.50
2022-12-08T06:19:59.703Z,4.15
2022-12-08T06:22:35.690Z,2.83
2022-12-08T06:25:16.409Z,4.28
2022-12-08T06:27:47.730Z,12.57
2022-12-08T06:30:30.938Z,11.10
2022-12-08T06:33:06.570Z,8.10
2022-12-08T06:35:48.728Z,12.02
2022-12-08T06:38:43.133Z,9.55
2022-12-08T06:41:12.163Z,9.73
2022-12-08T06:43:40.338Z,10.55
2022-12-08T06:46:13.148Z,7.43
2022-12-08T06:48:40.439Z,6.82
2022-12-08T06:51:09.253Z,7.68
2022-12-08T06:53:42.252Z,6.40
2022-12-08T06:56:22.473Z,6.82
2022-12-08T06:58:58.294Z,7.25
2022-12-08T07:01:38.897Z,6.57
2022-12-08T07:04:16.493Z,6.72
2022-12-08T07:06:49.350Z,7.63
2022-12-08T07:09:21.044Z,5.93
2022-12-08T07:11:50.168Z,7.40
2022-12-08T07:14:33.902Z,5.90
2022-12-08T07:17:06.966Z,6.40
2022-12-08T07:19:36.453Z,15.20
2022-12-08T07:22:26.285Z,17.85
2022-12-08T07:24:57.049Z,14.75
2022-12-08T07:27:26.443Z,13.73
2022-12-08T07:29:55.819Z,12.02
2022-12-08T07:32:39.183Z,12.05
2022-12-08T07:35:13.480Z,12.48
2022-12-08T07:37:58.693Z,3.35
2022-12-08T07:40:34.347Z,5.18
2022-12-08T07:43:04.328Z,4.80
2022-12-08T07:45:46.303Z,19.42
2022-12-08T07:48:30.482Z,7.07
2022-12-08T07:51:29.560Z,8.20
2022-12-08T07:54:00.172Z,8.15
2022-12-08T07:56:48.009Z,7.00
2022-12-08T07:59:15.385Z,11.95
2022-12-08T08:02:06.542Z,9.30
2022-12-08T08:04:46.103Z,12.30
2022-12-08T08:07:26.893Z,16.33
2022-12-08T08:09:58.775Z,7.18
2022-12-08T08:12:48.922Z,16.50
2022-12-08T08:15:21.597Z,8.25
2022-12-08T08:20:29.953Z,14.07
2022-12-08T08:23:03.716Z,11.40
2022-12-08T08:25:38.157Z,9.10
2022-12-08T08:28:05.763Z,9.27
2022-12-08T08:30:59.118Z,10.82
2022-12-08T08:33:35.787Z,9.45
2022-12-08T08:36:22.326Z,6.65
2022-12-08T08:38:57.390Z,7.10
2022-12-08T08:41:29.432Z,4.90
2022-12-08T08:44:08.126Z,8.60
2022-12-08T08:46:44.146Z,7.43
2022-12-08T08:49:13.844Z,5.82
2022-12-08T08:51:45.860Z,15.73
2022-12-08T08:54:14.362Z,6.30
2022-12-08T08:59:32.008Z,24.65
2022-12-08T09:02:14.412Z,20.17
2022-12-08T09:05:07.224Z,9.07
2022-12-08T09:07:49.067Z,10.02
2022-12-08T09:11:05.504Z,9.35
2022-12-08T09:13:34.762Z,14.68
2022-12-08T09:16:15.654Z,21.58
2022-12-08T09:18:46.452Z,12.15
2022-12-08T09:21:29.754Z,12.02
2022-12-08T09:24:17.441Z,7.53
2022-12-08T09:26:50.364Z,6.82
2022-12-08T09:29:17.929Z,10.63
2022-12-08T09:31:55.379Z,9.48
2022-12-08T09:34:33.826Z,8.05
2022-12-08T09:37:19.832Z,8.25
2022-12-08T09:39:56.877Z,8.23
2022-12-08T09:43:09.313Z,7.72
2022-12-08T09:46:14.249Z,8.30
2022-12-08T09:48:57.089Z,6.03
2022-12-08T09:54:58.324Z,6.40
2022-12-08T09:57:49.405Z,7.43
2022-12-08T10:01:28.526Z,8.80
2022-12-08T10:04:42.228Z,7.80
2022-12-08T10:07:50.640Z,7.75
2022-12-08T10:10:54.178Z,7.18
2022-12-08T10:13:42.417Z,7.28
2022-12-08T10:16:54.002Z,7.10
2022-12-08T10:19:34.545Z,8.18
2022-12-08T10:22:47.416Z,7.07
2022-12-08T10:26:11.573Z,8.55
2022-12-08T10:28:51.958Z,7.45
2022-12-08T10:32:00.008Z,9.10
2022-12-08T10:38:46.521Z,7.78
2022-12-08T10:41:27.963Z,7.30
2022-12-08T10:44:09.871Z,7.45
2022-12-08T10:46:53.906Z,8.57
2022-12-08T10:49:32.621Z,9.55
2022-12-08T10:52:12.776Z,8.77
2022-12-08T10:54:54.481Z,7.22
2022-12-08T10:57:26.396Z,7.97
2022-12-08T10:59:58.902Z,7.13
2022-12-08T11:02:44.797Z,9.73
2022-12-08T11:08:35.871Z,5.65
2022-12-08T11:11:29.612Z,6.30
2022-12-08T11:14:11.661Z,7.10
2022-12-08T11:19:43.068Z,6.25
2022-12-08T11:22:35.019Z,6.35
2022-12-08T11:25:53.400Z,4.95
2022-12-08T11:28:30.982Z,6.85
2022-12-08T11:31:15.126Z,6.75
2022-12-08T11:33:53.863Z,6.07
2022-12-08T11:36:50.658Z,8.18
2022-12-08T11:39:40.364Z,8.18
2022-12-08T11:42:25.419Z,8.95
2022-12-08T11:45:47.409Z,7.60
2022-12-08T11:48:41.184Z,8.45
2022-12-08T11:54:23.883Z,6.70
2022-12-08T11:57:29.461Z,7.40
2022-12-08T11:59:59.579Z,5.65
2022-12-08T12:02:51.657Z,5.35
2022-12-08T12:05:55.388Z,5.97
2022-12-08T12:08:44.333Z,7.43
2022-12-08T12:15:15.825Z,6.18
2022-12-08T12:22:06.679Z,4.72
2022-12-08T12:24:41.308Z,5.60
2022-12-08T12:27:29.113Z,6.25
2022-12-08T12:30:34.917Z,4.88
2022-12-08T12:33:21.010Z,6.22
2022-12-08T12:36:32.621Z,5.35
2022-12-08T12:39:16.864Z,4.65
2022-12-08T12:41:54.808Z,3.95
2022-12-08T12:44:38.330Z,5.05
2022-12-08T12:47:28.148Z,4.38
2022-12-08T12:50:32.407Z,5.03
2022-12-08T12:53:31.207Z,5.07
2022-12-08T12:56:24.974Z,3.67
2022-12-08T12:59:38.474Z,4.15
2022-12-08T13:02:51.044Z,4.65
2022-12-08T13:05:38.015Z,3.85
2022-12-08T13:08:17.013Z,4.13
2022-12-08T13:11:59.618Z,4.38
2022-12-08T13:14:37.852Z,4.05
2022-12-08T13:17:31.123Z,5.90
2022-12-08T13:20:16.551Z,8.13
2022-12-08T13:23:04.740Z,5.20
2022-12-08T13:26:19.944Z,5.88
2022-12-08T13:29:20.747Z,4.72
2022-12-08T13:32:25.938Z,6.60
2022-12-08T13:35:15.111Z,4.88
2022-12-08T13:37:55.122Z,4.43
2022-12-08T13:40:37.306Z,4.75
2022-12-08T13:43:45.181Z,4.40
2022-12-08T13:57:05.592Z,5.13
2022-12-08T13:59:46.462Z,4.65
2022-12-08T14:02:39.552Z,4.70
2022-12-08T14:05:41.115Z,5.22
2022-12-08T14:09:00.365Z,5.70
2022-12-08T14:11:43.723Z,6.72
2022-12-08T14:15:02.397Z,7.00
2022-12-08T14:17:28.868Z,6.70
2022-12-08T15:42:11.028Z,4.40
2022-12-08T15:44:50.575Z,5.43
2022-12-08T15:47:26.434Z,5.70
2022-12-08T15:49:53.820Z,6.47
2022-12-08T15:52:29.978Z,5.15
2022-12-08T15:55:21.425Z,6.45
2022-12-08T16:01:15.297Z,5.82
2022-12-08T16:04:27.604Z,4.18
2022-12-08T16:09:36.328Z,5.90
2022-12-08T16:13:20.014Z,5.40
2022-12-08T16:16:04.235Z,6.20
2022-12-08T16:18:40.564Z,4.40
2022-12-08T16:21:31.523Z,4.75
2022-12-08T16:24:09.484Z,4.95
2022-12-08T16:27:57.954Z,5.00
2022-12-08T16:29:47.154Z,6.43
2022-12-08T16:32:24.569Z,5.90
2022-12-08T16:34:59.029Z,5.20
2022-12-08T16:37:30.814Z,7.85
2022-12-08T16:39:59.076Z,6.88
2022-12-08T16:42:47.791Z,6.35
2022-12-08T16:45:26.945Z,6.43
2022-12-08T16:50:34.044Z,6.88
2022-12-08T16:53:13.616Z,5.97
2022-12-08T16:55:57.269Z,6.22
2022-12-08T16:58:35.733Z,7.90
2022-12-08T17:01:16.239Z,8.20
2022-12-08T17:03:56.260Z,8.43
2022-12-08T17:06:33.138Z,9.05
2022-12-08T17:09:11.408Z,8.32
2022-12-08T17:11:50.982Z,8.98
2022-12-08T17:14:28.101Z,9.18
2022-12-08T17:16:58.748Z,8.77
2022-12-08T17:19:30.839Z,8.20
2022-12-08T17:22:04.371Z,7.80
2022-12-08T17:24:34.053Z,6.05
2022-12-08T17:27:18.849Z,6.60
2022-12-08T17:30:41.170Z,5.45
2022-12-08T17:33:29.436Z,6.25
2022-12-08T17:36:11.373Z,5.47
2022-12-08T17:38:44.205Z,6.07
2022-12-08T17:41:22.605Z,6.47
2022-12-08T17:43:52.701Z,7.10
2022-12-08T17:46:23.245Z,6.55
2022-12-08T17:51:33.416Z,7.25
2022-12-08T17:54:10.756Z,6.88
2022-12-08T17:56:37.818Z,7.07
2022-12-08T17:59:05.055Z,7.22
2022-12-08T18:01:41.464Z,6.38
2022-12-08T18:04:14.755Z,5.80
2022-12-08T18:06:44.865Z,6.53
2022-12-08T18:09:41.891Z,5.78
2022-12-08T18:12:22.297Z,7.32
2022-12-08T18:14:54.068Z,8.48
2022-12-08T18:17:27.681Z,7.60
2022-12-08T18:19:57.320Z,8.30
2022-12-08T18:22:30.332Z,5.95
2022-12-08T18:25:00.208Z,7.70
2022-12-08T18:27:45.515Z,7.03
2022-12-08T18:30:22.277Z,7.63
2022-12-08T18:33:05.797Z,6.65
2022-12-08T18:35:42.345Z,7.13
2022-12-08T18:40:48.410Z,6.13
2022-12-08T18:43:25.417Z,5.57
2022-12-08T18:46:21.707Z,7.57
2022-12-08T18:49:00.440Z,7.80
2022-12-08T18:51:38.239Z,10.20
2022-12-08T18:54:05.518Z,7.10
2022-12-08T18:56:56.374Z,9.43
2022-12-08T18:59:32.453Z,6.57
2022-12-08T19:02:36.102Z,8.25
2022-12-08T19:05:13.987Z,6.85
2022-12-08T19:07:42.767Z,7.00
2022-12-08T19:10:16.752Z,8.15
2022-12-08T19:13:18.704Z,7.95
2022-12-08T19:15:58.173Z,8.38
2022-12-08T19:18:30.907Z,10.00
2022-12-08T19:21:25.299Z,8.15
2022-12-08T19:23:58.752Z,5.90
2022-12-08T19:26:36.675Z,7.53
2022-12-08T19:29:12.129Z,6.70
2022-12-08T19:31:47.022Z,5.70
2022-12-08T19:34:16.815Z,6.50
2022-12-08T19:36:46.374Z,6.72
2022-12-08T19:39:38.673Z,8.38
2022-12-08T19:42:41.289Z,9.43
2022-12-08T19:45:36.497Z,7.53
2022-12-08T19:48:06.230Z,7.40
2022-12-08T19:50:44.971Z,9.90
2022-12-08T19:53:14.965Z,7.53
2022-12-08T19:55:46.316Z,10.05
2022-12-08T19:58:22.666Z,6.60
2022-12-08T20:01:26.149Z,7.07
2022-12-08T20:03:43.677Z,6.25
2022-12-08T20:06:30.341Z,5.43
2022-12-08T20:12:21.485Z,7.00
2022-12-08T20:15:01.993Z,6.70
2022-12-08T20:18:20.523Z,7.18
2022-12-08T20:24:11.178Z,5.82
2022-12-08T20:27:18.519Z,3.80
2022-12-08T20:37:28.947Z,4.57
2022-12-08T20:43:46.461Z,4.25
2022-12-08T20:46:42.786Z,7.18
2022-12-08T20:49:34.702Z,7.18
2022-12-08T20:52:06.726Z,8.68
2022-12-08T20:54:44.231Z,6.05
2022-12-08T20:57:20.983Z,6.40
2022-12-08T20:59:48.364Z,6.43
2022-12-08T21:02:24.446Z,7.05
2022-12-08T21:05:08.933Z,7.72
2022-12-08T21:07:45.435Z,6.93
2022-12-08T21:10:27.691Z,7.65
2022-12-08T21:13:03.674Z,8.32
2022-12-08T21:15:57.577Z,8.43
2022-12-08T21:18:37.489Z,7.15
2022-12-08T21:21:10.087Z,6.50
2022-12-08T21:23:41.729Z,6.88
2022-12-08T21:26:24.237Z,6.82
2022-12-08T21:28:58.878Z,7.97
2022-12-08T21:31:35.128Z,7.68
2022-12-08T21:34:21.211Z,7.03
2022-12-08T21:37:47.152Z,6.25
2022-12-08T21:39:59.959Z,6.53
2022-12-08T21:42:45.599Z,6.78
2022-12-08T21:45:25.134Z,4.32
2022-12-08T21:48:11.460Z,4.93
2022-12-08T21:50:49.695Z,9.00
2022-12-08T21:53:29.402Z,4.43
2022-12-08T21:57:03.440Z,4.15
2022-12-08T21:59:11.618Z,5.22
2022-12-08T22:01:41.329Z,3.55
2022-12-08T22:04:29.684Z,1.67
2022-12-08T22:07:02.910Z,2.97
2022-12-08T22:09:32.850Z,1.25
2022-12-08T22:12:05.024Z,3.13
2022-12-08T22:14:45.400Z,4.40
2022-12-08T22:17:24.784Z,4.75
2022-12-08T22:19:56.301Z,2.88
2022-12-08T22:22:34.874Z,2.17
2022-12-08T22:25:13.688Z,3.25
2022-12-08T22:27:55.942Z,3.60
2022-12-08T22:30:26.233Z,4.32
2022-12-08T22:32:55.573Z,3.90
2022-12-08T22:35:33.722Z,3.70
2022-12-08T22:38:05.626Z,2.67
2022-12-08T22:40:53.920Z,2.92
2022-12-08T22:43:28.869Z,3.10
2022-12-08T22:46:10.008Z,2.70
2022-12-08T22:48:43.789Z,2.63
2022-12-08T22:51:20.322Z,3.15
2022-12-08T22:53:48.289Z,4.93
2022-12-08T22:56:19.175Z,2.90
2022-12-08T22:58:49.714Z,3.72
2022-12-08T23:01:23.799Z,2.70
2022-12-08T23:03:54.898Z,4.00
2022-12-08T23:06:29.106Z,3.75
2022-12-08T23:09:05.292Z,3.95
2022-12-08T23:11:37.868Z,3.67
2022-12-08T23:14:14.380Z,3.30
2022-12-08T23:16:58.574Z,2.22
2022-12-08T23:19:29.615Z,3.38
2022-12-08T23:22:14.543Z,4.60
2022-12-08T23:24:55.870Z,3.80
2022-12-08T23:27:35.768Z,3.60
2022-12-08T23:30:18.131Z,4.50
2022-12-08T23:32:48.068Z,3.22
2022-12-08T23:35:19.645Z,3.95
2022-12-08T23:38:05.099Z,5.60
2022-12-08T23:40:37.947Z,4.38
2022-12-08T23:43:06.080Z,5.20
2022-12-08T23:45:35.497Z,4.80
2022-12-08T23:48:06.600Z,4.03
2022-12-08T23:50:40.994Z,4.10
2022-12-08T23:53:19.886Z,3.53
2022-12-08T23:55:49.749Z,4.43
2022-12-08T23:58:19.300Z,4.38
